Time;durP1;ratioP1;P1;durP2;ratioP2;P2;SDS_P1;SDS_P2;PMS_P1;PMS_P2;Temp;Humidity;BMP_temperature;BMP_pressure;BME280_temperature;BME280_humidity;BME280_pressure;Samples;Min_cycle;Max_cycle;Signal;HPM_P1;HPM_P2
2021/10/21 00:01:51;;;;;;;4.80;2.90;;;21.70;54.80;;;;;;6288800;28;20022;-68
2021/10/21 00:04:52;;;;;;;3.42;2.20;;;21.70;54.80;;;;;;6271597;28;20055;-68
2021/10/21 00:07:52;;;;;;;3.63;2.30;;;21.80;54.80;;;;;;6282862;28;20145;-68
2021/10/21 00:10:53;;;;;;;3.10;2.30;;;21.80;54.80;;;;;;6294245;28;20040;-68
2021/10/21 00:13:53;;;;;;;3.97;2.40;;;21.70;54.70;;;;;;6294183;28;20485;-68
2021/10/21 00:16:54;;;;;;;3.83;2.35;;;21.70;54.70;;;;;;6292630;28;20403;-67
2021/10/21 00:19:55;;;;;;;3.28;2.10;;;21.70;54.70;;;;;;6295510;28;20051;-68
2021/10/21 00:22:55;;;;;;;2.95;2.30;;;21.70;54.80;;;;;;6283966;28;20025;-68
2021/10/21 00:25:56;;;;;;;3.95;2.42;;;21.70;54.70;;;;;;6281721;28;20645;-68
2021/10/21 00:28:56;;;;;;;3.67;2.08;;;21.70;54.80;;;;;;6294937;28;20112;-68
2021/10/21 00:31:57;;;;;;;3.67;2.08;;;21.70;54.80;;;;;;6294329;28;20103;-68
2021/10/21 00:34:57;;;;;;;3.05;1.77;;;21.70;54.70;;;;;;6294948;28;20032;-70
2021/10/21 00:37:58;;;;;;;3.20;2.00;;;21.80;54.80;;;;;;6294882;28;20028;-69
2021/10/21 00:40:59;;;;;;;4.13;2.20;;;21.70;54.80;;;;;;6294526;28;20024;-69
2021/10/21 00:44:09;;;;;;;3.38;2.00;;;21.70;54.80;;;;;;6294161;28;20028;-69
2021/10/21 00:47:10;;;;;;;3.97;2.20;;;21.70;54.80;;;;;;6281891;28;20021;-69
2021/10/21 00:50:10;;;;;;;2.95;2.05;;;21.80;54.80;;;;;;6286936;28;20032;-69
2021/10/21 00:53:11;;;;;;;2.92;1.88;;;21.70;54.70;;;;;;6274324;28;20079;-69
2021/10/21 00:56:14;;;;;;;3.35;2.13;;;21.80;54.80;;;;;;6271435;28;20028;-69
2021/10/21 00:59:15;;;;;;;3.03;2.00;;;21.70;54.80;;;;;;6293912;28;20048;-69
2021/10/21 01:02:17;;;;;;;2.22;1.60;;;21.70;54.80;;;;;;6287295;28;20482;-69
2021/10/21 01:05:17;;;;;;;2.88;1.98;;;21.70;54.70;;;;;;6294080;28;20482;-69
2021/10/21 01:08:18;;;;;;;3.03;2.10;;;21.70;54.70;;;;;;6293225;28;20123;-69
2021/10/21 01:11:19;;;;;;;2.30;1.67;;;21.70;54.80;;;;;;6293605;28;20048;-69
2021/10/21 01:14:20;;;;;;;2.60;1.67;;;21.70;54.70;;;;;;6293553;28;20389;-69
2021/10/21 01:17:22;;;;;;;2.28;1.70;;;21.70;54.80;;;;;;6291517;28;20027;-67
2021/10/21 01:20:25;;;;;;;3.28;2.22;;;21.70;54.70;;;;;;6291941;28;20028;-67
2021/10/21 01:23:26;;;;;;;2.03;1.52;;;21.70;54.70;;;;;;6278394;28;20484;-67
2021/10/21 01:26:27;;;;;;;2.40;1.73;;;21.70;54.70;;;;;;6277282;28;20524;-67
2021/10/21 01:29:28;;;;;;;3.45;2.00;;;21.70;54.70;;;;;;6293359;28;20028;-67
2021/10/21 01:32:34;;;;;;;3.15;1.85;;;21.70;54.80;;;;;;6292042;28;20388;-67
2021/10/21 01:35:35;;;;;;;2.35;1.58;;;21.70;54.70;;;;;;6285679;28;20112;-67
2021/10/21 01:38:36;;;;;;;3.13;1.90;;;21.70;54.70;;;;;;6268183;28;20025;-67
2021/10/21 01:41:37;;;;;;;2.45;1.63;;;21.80;54.80;;;;;;6275385;28;20462;-67
2021/10/21 01:44:37;;;;;;;3.78;1.88;;;21.70;54.70;;;;;;6292968;28;20044;-67
2021/10/21 01:47:38;;;;;;;2.08;1.63;;;21.70;54.70;;;;;;6277615;28;20017;-67
2021/10/21 01:50:39;;;;;;;1.67;1.40;;;21.70;54.70;;;;;;6266382;28;20067;-67
2021/10/21 01:53:39;;;;;;;1.98;1.50;;;21.70;54.70;;;;;;6291757;28;20020;-67
2021/10/21 01:56:40;;;;;;;2.40;1.60;;;21.70;54.80;;;;;;6285966;28;20025;-67
2021/10/21 01:59:40;;;;;;;2.78;1.58;;;21.70;54.80;;;;;;6267883;28;20477;-67
2021/10/21 02:02:44;;;;;;;2.60;1.73;;;21.70;54.80;;;;;;6281769;28;20517;-67
2021/10/21 02:05:45;;;;;;;1.93;1.30;;;21.70;54.80;;;;;;6292733;28;20411;-69
2021/10/21 02:08:45;;;;;;;2.60;1.60;;;21.70;54.80;;;;;;6292620;28;20107;-69
2021/10/21 02:11:46;;;;;;;3.67;1.98;;;21.70;54.90;;;;;;6292412;28;20044;-69
2021/10/21 02:14:47;;;;;;;5.30;1.90;;;21.80;54.90;;;;;;6292296;28;20111;-69
2021/10/21 02:17:48;;;;;;;4.50;2.17;;;21.80;54.90;;;;;;6289867;28;20028;-69
2021/10/21 02:20:48;;;;;;;4.35;2.47;;;21.70;54.80;;;;;;6292964;28;20021;-69
2021/10/21 02:23:49;;;;;;;8.00;2.78;;;21.70;55.00;;;;;;6270894;28;20850;-69
2021/10/21 02:26:50;;;;;;;6.85;3.00;;;21.70;54.90;;;;;;6279437;28;20047;-70
2021/10/21 02:29:50;;;;;;;6.13;2.22;;;21.70;54.90;;;;;;6292340;28;20389;-69
2021/10/21 02:32:51;;;;;;;8.73;2.72;;;21.70;55.10;;;;;;6291491;28;20099;-69
2021/10/21 02:35:52;;;;;;;7.63;2.70;;;21.70;55.00;;;;;;6291724;28;20393;-69
2021/10/21 02:38:52;;;;;;;7.43;2.63;;;21.70;54.90;;;;;;6292117;28;20020;-69
2021/10/21 02:41:53;;;;;;;9.32;2.95;;;21.70;55.10;;;;;;6291860;28;20031;-69
2021/10/21 02:44:54;;;;;;;7.22;2.80;;;21.70;55.10;;;;;;6292342;28;20020;-69
2021/10/21 02:47:54;;;;;;;8.55;3.22;;;21.70;55.00;;;;;;6274181;28;20466;-69
2021/10/21 02:50:55;;;;;;;5.93;2.75;;;21.70;55.10;;;;;;6268173;28;20482;-69
2021/10/21 02:53:56;;;;;;;9.57;2.70;;;21.70;55.10;;;;;;6290840;28;20155;-69
2021/10/21 02:56:57;;;;;;;8.93;3.03;;;21.70;55.00;;;;;;6291326;28;20029;-69
2021/10/21 02:59:58;;;;;;;10.80;2.83;;;21.70;55.00;;;;;;6293289;28;20055;-69
2021/10/21 03:02:58;;;;;;;10.38;2.90;;;21.70;55.20;;;;;;6296621;28;20025;-69
2021/10/21 03:05:59;;;;;;;7.40;2.65;;;21.70;55.10;;;;;;6288714;28;20032;-69
2021/10/21 03:09:01;;;;;;;7.85;2.90;;;21.70;55.20;;;;;;6292838;28;20028;-69
2021/10/21 03:12:01;;;;;;;13.02;2.97;;;21.70;55.10;;;;;;6290768;28;20415;-69
2021/10/21 03:15:02;;;;;;;15.45;3.20;;;21.80;55.10;;;;;;6271910;28;20044;-69
2021/10/21 03:18:03;;;;;;;8.63;3.00;;;21.70;55.00;;;;;;6271681;28;20100;-69
2021/10/21 03:21:03;;;;;;;10.00;2.78;;;21.80;55.10;;;;;;6272957;28;20016;-69
2021/10/21 03:24:04;;;;;;;11.07;3.22;;;21.80;55.10;;;;;;6292651;28;20385;-69
2021/10/21 03:27:05;;;;;;;9.88;3.22;;;21.80;55.20;;;;;;6295720;28;20428;-69
2021/10/21 03:30:07;;;;;;;9.43;3.25;;;21.80;55.30;;;;;;6285573;28;20104;-69
2021/10/21 03:33:08;;;;;;;10.50;3.63;;;21.80;55.40;;;;;;6293589;28;20097;-69
2021/10/21 03:36:08;;;;;;;9.38;3.65;;;21.80;55.80;;;;;;6289305;28;20514;-69
2021/10/21 03:39:09;;;;;;;10.50;3.10;;;21.80;55.80;;;;;;6271169;28;20025;-69
2021/10/21 03:42:10;;;;;;;8.15;3.03;;;21.80;56.10;;;;;;6269509;28;20013;-69
2021/10/21 03:45:10;;;;;;;8.63;2.88;;;21.80;56.30;;;;;;6270853;28;20492;-69
2021/10/21 03:48:11;;;;;;;11.05;3.35;;;21.80;56.50;;;;;;6260394;28;20017;-69
2021/10/21 03:51:11;;;;;;;8.50;3.00;;;21.80;56.20;;;;;;6274143;28;20379;-69
2021/10/21 03:54:13;;;;;;;7.68;3.05;;;21.80;56.10;;;;;;6295884;28;20050;-69
2021/10/21 03:57:14;;;;;;;8.80;3.40;;;21.80;56.00;;;;;;6282647;28;20029;-69
2021/10/21 04:00:37;;;;;;;7.55;2.83;;;21.80;55.90;;;;;;6270534;28;20490;-69
2021/10/21 04:03:37;;;;;;;6.43;2.88;;;21.80;55.90;;;;;;6292035;28;20027;-69
2021/10/21 04:06:38;;;;;;;7.72;2.85;;;21.80;55.90;;;;;;6289572;28;20025;-69
2021/10/21 04:09:39;;;;;;;9.43;2.95;;;21.80;55.80;;;;;;6269950;28;20112;-67
2021/10/21 04:12:39;;;;;;;6.75;2.42;;;21.80;55.80;;;;;;6282077;28;20028;-67
2021/10/21 04:15:41;;;;;;;4.63;2.25;;;21.80;55.70;;;;;;6294893;28;20065;-67
2021/10/21 04:18:41;;;;;;;7.82;2.40;;;21.80;55.70;;;;;;6273796;28;20429;-69
2021/10/21 04:21:42;;;;;;;5.78;2.50;;;21.80;55.60;;;;;;6272486;28;20028;-69
2021/10/21 04:24:42;;;;;;;5.13;2.30;;;21.80;55.50;;;;;;6293667;28;20025;-69
2021/10/21 04:27:43;;;;;;;5.10;2.40;;;21.80;55.50;;;;;;6272991;28;20029;-67
2021/10/21 04:30:44;;;;;;;4.65;2.17;;;21.80;55.50;;;;;;6270743;28;20049;-69
2021/10/21 04:33:44;;;;;;;4.20;1.98;;;21.80;55.50;;;;;;6294819;28;20032;-69
2021/10/21 04:36:45;;;;;;;4.57;2.25;;;21.80;55.40;;;;;;6294816;28;20029;-69
2021/10/21 04:39:45;;;;;;;8.63;2.40;;;21.80;55.50;;;;;;6294087;28;20393;-69
2021/10/21 04:42:46;;;;;;;5.57;2.45;;;21.80;55.40;;;;;;6294133;28;20108;-69
2021/10/21 04:45:46;;;;;;;4.50;2.25;;;21.80;55.40;;;;;;6293853;28;20448;-69
2021/10/21 04:48:47;;;;;;;4.65;2.15;;;21.80;55.30;;;;;;6270182;28;20029;-69
2021/10/21 04:51:47;;;;;;;5.70;2.10;;;21.80;55.30;;;;;;6269669;28;20106;-69
2021/10/21 04:54:48;;;;;;;3.90;1.92;;;21.80;55.40;;;;;;6269300;28;20029;-69
2021/10/21 04:57:51;;;;;;;4.03;1.83;;;21.80;55.30;;;;;;6285537;28;20024;-69
2021/10/21 05:00:51;;;;;;;4.45;1.65;;;21.80;55.30;;;;;;6292974;28;20086;-67
2021/10/21 05:03:52;;;;;;;3.75;1.88;;;21.80;55.30;;;;;;6292503;28;20021;-69
2021/10/21 05:06:52;;;;;;;3.03;1.70;;;21.80;55.30;;;;;;6288762;28;20025;-68
2021/10/21 05:09:53;;;;;;;3.65;1.70;;;21.80;55.30;;;;;;6269767;28;20052;-69
2021/10/21 05:12:53;;;;;;;4.97;2.00;;;21.80;55.30;;;;;;6270520;28;20045;-68
2021/10/21 05:15:54;;;;;;;4.65;2.03;;;21.80;55.90;;;;;;6269907;28;20044;-68
2021/10/21 05:18:54;;;;;;;4.05;1.90;;;21.80;55.30;;;;;;6269633;28;20104;-68
2021/10/21 05:21:56;;;;;;;3.80;1.88;;;21.80;55.30;;;;;;6282888;28;20122;-68
2021/10/21 05:24:56;;;;;;;4.63;1.65;;;21.80;55.30;;;;;;6273372;28;20020;-68
2021/10/21 05:27:57;;;;;;;4.40;1.70;;;21.80;55.30;;;;;;6293931;28;20394;-66
2021/10/21 05:30:58;;;;;;;3.47;1.70;;;21.80;55.20;;;;;;6293265;28;20103;-67
2021/10/21 05:33:58;;;;;;;4.15;1.80;;;21.80;55.30;;;;;;6263938;28;20025;-66
2021/10/21 05:36:59;;;;;;;2.60;1.60;;;21.80;55.20;;;;;;6275175;28;20028;-68
2021/10/21 05:40:00;;;;;;;3.72;1.70;;;21.80;55.30;;;;;;6270331;28;20025;-68
2021/10/21 05:43:00;;;;;;;4.43;1.45;;;21.80;55.30;;;;;;6267280;28;20032;-68
2021/10/21 05:46:01;;;;;;;4.72;2.08;;;21.80;55.70;;;;;;6268386;28;20039;-69
2021/10/21 05:49:03;;;;;;;4.35;1.75;;;21.80;55.70;;;;;;6263292;28;20534;-69
2021/10/21 05:52:04;;;;;;;7.05;1.73;;;21.80;55.70;;;;;;6270411;28;20421;-68
2021/10/21 05:55:05;;;;;;;2.58;1.40;;;21.80;55.60;;;;;;6246248;28;20040;-68
2021/10/21 05:58:08;;;;;;;2.97;1.63;;;21.80;55.60;;;;;;6271392;28;20060;-68
2021/10/21 06:01:08;;;;;;;6.30;1.70;;;21.80;55.60;;;;;;6276419;28;20025;-68
2021/10/21 06:04:09;;;;;;;5.93;1.75;;;21.80;55.60;;;;;;6256924;28;20071;-68
2021/10/21 06:07:10;;;;;;;7.00;1.83;;;21.80;55.60;;;;;;6270046;28;20041;-68
2021/10/21 06:10:10;;;;;;;4.18;1.92;;;21.80;55.50;;;;;;6269496;28;20135;-68
2021/10/21 06:13:11;;;;;;;4.15;1.27;;;21.80;55.60;;;;;;6268710;28;20080;-68
2021/10/21 06:16:11;;;;;;;2.58;1.60;;;21.80;55.60;;;;;;6270123;28;20021;-67
2021/10/21 06:19:12;;;;;;;1.88;1.27;;;21.80;55.40;;;;;;6269741;28;20021;-68
2021/10/21 06:22:18;;;;;;;2.67;1.20;;;21.80;55.70;;;;;;6269478;28;20025;-67
2021/10/21 06:25:18;;;;;;;3.03;1.48;;;21.80;55.60;;;;;;6270892;28;20048;-68
2021/10/21 06:28:19;;;;;;;2.65;1.30;;;21.80;55.50;;;;;;6270997;28;20025;-67
2021/10/21 06:31:20;;;;;;;6.00;1.58;;;21.80;55.50;;;;;;6282601;28;20035;-68
2021/10/21 06:34:21;;;;;;;2.30;1.38;;;21.80;56.20;;;;;;6271669;28;20113;-68
2021/10/21 06:37:22;;;;;;;2.92;1.45;;;21.80;55.50;;;;;;6274324;28;20585;-67
2021/10/21 06:40:22;;;;;;;3.25;1.58;;;21.80;55.50;;;;;;6257868;28;20022;-67
2021/10/21 06:43:23;;;;;;;5.10;1.38;;;21.80;55.40;;;;;;6273047;28;20025;-67
2021/10/21 06:46:26;;;;;;;2.63;1.30;;;21.80;55.40;;;;;;6257539;28;20024;-67
2021/10/21 06:49:27;;;;;;;3.45;1.60;;;21.80;55.30;;;;;;6268471;28;20068;-67
2021/10/21 06:52:28;;;;;;;1.40;1.10;;;21.80;55.40;;;;;;6260537;28;20025;-67
2021/10/21 06:55:28;;;;;;;1.98;1.15;;;21.80;55.40;;;;;;6272734;28;20117;-67
2021/10/21 06:58:30;;;;;;;1.95;1.27;;;21.80;55.40;;;;;;6273830;28;20017;-68
2021/10/21 07:01:30;;;;;;;2.22;1.10;;;21.80;55.40;;;;;;6258367;28;20108;-67
2021/10/21 07:04:31;;;;;;;2.70;1.25;;;21.80;55.40;;;;;;6272857;28;20351;-68
2021/10/21 07:07:31;;;;;;;2.42;1.40;;;21.80;55.30;;;;;;6267357;28;20646;-69
2021/10/21 07:10:33;;;;;;;4.43;1.20;;;21.80;55.30;;;;;;6270550;28;20057;-69
2021/10/21 07:13:33;;;;;;;1.70;1.00;;;21.80;55.30;;;;;;6257393;28;20103;-69
2021/10/21 07:16:34;;;;;;;1.92;1.10;;;21.80;55.30;;;;;;6273120;28;20029;-69
2021/10/21 07:19:34;;;;;;;1.75;0.90;;;21.80;55.30;;;;;;6260299;28;20079;-69
2021/10/21 07:22:36;;;;;;;1.83;1.25;;;21.80;55.30;;;;;;6259693;28;20609;-69
2021/10/21 07:25:36;;;;;;;4.97;1.10;;;21.80;55.90;;;;;;6264123;28;20264;-69
2021/10/21 07:28:37;;;;;;;1.70;1.05;;;21.80;55.20;;;;;;6283958;28;20051;-69
2021/10/21 07:31:38;;;;;;;2.72;1.20;;;21.80;55.20;;;;;;6257823;28;20090;-69
2021/10/21 07:34:41;;;;;;;2.60;1.13;;;21.80;55.20;;;;;;6272524;28;20445;-69
2021/10/21 07:37:42;;;;;;;1.40;1.10;;;21.80;55.20;;;;;;6278008;28;20087;-69
2021/10/21 07:40:43;;;;;;;1.98;1.05;;;21.80;55.20;;;;;;6272663;28;20048;-69
2021/10/21 07:43:44;;;;;;;2.85;1.13;;;21.80;55.10;;;;;;6288482;28;20404;-69
2021/10/21 07:46:49;;;;;;;1.98;0.90;;;21.80;55.10;;;;;;6284611;28;20029;-69
2021/10/21 07:49:50;;;;;;;5.50;1.10;;;21.90;55.10;;;;;;6270630;28;20056;-69
2021/10/21 07:52:50;;;;;;;1.75;1.20;;;21.80;55.10;;;;;;6286530;28;20029;-69
2021/10/21 07:55:51;;;;;;;1.98;1.02;;;21.80;55.10;;;;;;6269766;28;20504;-69
2021/10/21 07:58:52;;;;;;;2.08;1.25;;;21.80;55.00;;;;;;6256595;28;20042;-69
2021/10/21 08:02:00;;;;;;;1.73;1.05;;;21.80;55.10;;;;;;6262707;28;20029;-69
2021/10/21 08:05:00;;;;;;;4.15;1.10;;;21.80;55.00;;;;;;6269385;28;20012;-69
2021/10/21 08:08:04;;;;;;;2.10;1.10;;;21.90;55.10;;;;;;6272639;28;20336;-69
2021/10/21 08:11:04;;;;;;;1.67;1.10;;;21.80;54.90;;;;;;6295358;28;20078;-69
2021/10/21 08:14:11;;;;;;;2.40;1.00;;;21.80;54.90;;;;;;6270552;28;20040;-68
2021/10/21 08:17:11;;;;;;;1.40;0.93;;;21.80;54.80;;;;;;6277384;28;20090;-69
2021/10/21 08:20:13;;;;;;;1.45;1.00;;;21.80;54.90;;;;;;6277372;28;20021;-69
2021/10/21 08:23:14;;;;;;;2.10;0.80;;;21.80;54.80;;;;;;6270590;28;20079;-69
2021/10/21 08:26:15;;;;;;;1.40;1.00;;;21.80;54.80;;;;;;6270272;28;20068;-69
2021/10/21 08:29:17;;;;;;;1.95;1.20;;;21.80;54.80;;;;;;6279851;28;20029;-69
2021/10/21 08:32:19;;;;;;;4.88;1.58;;;21.80;54.80;;;;;;6269738;28;20103;-68
2021/10/21 08:35:19;;;;;;;2.30;1.13;;;21.80;54.80;;;;;;6270341;28;20028;-69
2021/10/21 08:38:20;;;;;;;2.20;0.90;;;21.80;54.20;;;;;;6274915;28;20060;-69
2021/10/21 08:41:21;;;;;;;4.88;0.95;;;21.80;53.70;;;;;;6269133;28;20506;-70
2021/10/21 08:44:24;;;;;;;5.60;1.20;;;21.80;54.10;;;;;;6270224;28;20071;-69
2021/10/21 08:47:26;;;;;;;3.33;0.95;;;21.80;54.30;;;;;;6258919;28;20491;-71
2021/10/21 08:50:29;;;;;;;5.38;1.00;;;21.80;53.30;;;;;;6280490;28;20423;-69
2021/10/21 08:53:33;;;;;;;3.80;0.93;;;21.80;53.80;;;;;;6283191;28;20044;-69
2021/10/21 08:56:34;;;;;;;5.57;1.37;;;21.80;53.80;;;;;;6263181;28;20033;-69
2021/10/21 08:59:34;;;;;;;1.27;1.00;;;21.80;53.90;;;;;;6261446;28;20045;-69
2021/10/21 09:02:47;;;;;;;2.10;1.10;;;21.80;53.90;;;;;;6268293;28;20128;-69
2021/10/21 09:05:57;;;;;;;1.98;0.90;;;21.80;54.10;;;;;;6268736;28;20342;-69
2021/10/21 09:08:59;;;;;;;2.15;1.25;;;21.80;54.10;;;;;;6267827;28;20040;-69
2021/10/21 09:12:17;;;;;;;1.52;0.90;;;21.80;54.30;;;;;;6270549;28;20120;-69
2021/10/21 09:15:24;;;;;;;2.05;0.98;;;21.80;54.20;;;;;;6281447;28;20033;-69
2021/10/21 09:18:42;;;;;;;3.67;0.82;;;21.80;54.20;;;;;;6267799;28;20051;-69
2021/10/21 09:21:43;;;;;;;4.40;0.85;;;21.80;54.20;;;;;;6294130;28;20032;-70
2021/10/21 09:24:44;;;;;;;1.65;0.88;;;21.80;54.30;;;;;;6275056;28;20025;-69
2021/10/21 09:27:45;;;;;;;1.75;0.93;;;21.80;54.20;;;;;;6274824;28;20498;-69
2021/10/21 09:31:12;;;;;;;3.38;1.05;;;21.80;54.30;;;;;;6273490;28;20025;-69
2021/10/21 09:34:21;;;;;;;2.90;1.45;;;21.80;54.30;;;;;;6269416;28;20017;-69
2021/10/21 09:37:30;;;;;;;2.50;0.80;;;21.80;54.30;;;;;;6281117;28;20036;-69
2021/10/21 09:40:35;;;;;;;2.90;1.20;;;21.80;54.30;;;;;;6267717;28;20433;-69
2021/10/21 09:43:36;;;;;;;2.65;0.80;;;21.80;54.30;;;;;;6280964;28;20029;-69
2021/10/21 09:46:41;;;;;;;2.03;0.82;;;21.80;54.30;;;;;;6269716;28;20056;-69
2021/10/21 09:49:44;;;;;;;2.72;1.25;;;21.80;54.30;;;;;;6268419;28;20036;-68
2021/10/21 09:53:10;;;;;;;4.18;1.13;;;21.80;54.30;;;;;;6262773;28;20155;-67
2021/10/21 09:56:11;;;;;;;2.53;0.90;;;21.80;54.30;;;;;;6260878;28;20060;-67
2021/10/21 09:59:11;;;;;;;8.98;1.02;;;21.80;53.40;;;;;;6293821;28;20024;-69
2021/10/21 10:02:15;;;;;;;7.28;1.38;;;21.80;52.90;;;;;;6294206;28;20047;-69
2021/10/21 10:05:16;;;;;;;4.63;1.00;;;21.80;52.20;;;;;;6273874;28;20082;-69
2021/10/21 10:08:24;;;;;;;4.43;1.00;;;21.80;52.90;;;;;;6272881;28;20367;-69
2021/10/21 10:11:24;;;;;;;5.32;1.10;;;21.80;53.10;;;;;;6268408;28;20056;-69
2021/10/21 10:14:27;;;;;;;3.30;1.38;;;21.80;53.20;;;;;;6281968;28;20043;-68
2021/10/21 10:17:30;;;;;;;2.58;0.98;;;21.80;53.30;;;;;;6283305;28;20079;-68
2021/10/21 10:20:30;;;;;;;3.97;0.90;;;21.80;53.40;;;;;;6289392;28;20043;-68
2021/10/21 10:23:33;;;;;;;2.10;0.95;;;21.80;53.40;;;;;;6292049;28;20025;-69
2021/10/21 10:26:55;;;;;;;4.25;1.33;;;21.80;53.70;;;;;;6268556;28;20057;-67
2021/10/21 10:30:01;;;;;;;1.75;0.77;;;21.80;52.80;;;;;;6269716;28;20050;-67
2021/10/21 10:33:01;;;;;;;2.35;0.98;;;21.80;53.00;;;;;;6269330;28;20048;-68
2021/10/21 10:36:21;;;;;;;1.52;0.80;;;21.80;53.20;;;;;;6269949;28;20035;-68
2021/10/21 10:39:53;;;;;;;2.10;0.82;;;21.80;53.50;;;;;;6270163;28;20029;-68
2021/10/21 10:42:54;;;;;;;5.35;0.90;;;21.80;53.50;;;;;;6257508;28;20337;-68
2021/10/21 10:45:54;;;;;;;11.07;1.30;;;21.80;53.70;;;;;;6270218;28;20386;-69
2021/10/21 10:48:56;;;;;;;11.43;1.30;;;21.80;53.70;;;;;;6269796;28;20116;-67
2021/10/21 10:51:59;;;;;;;4.72;1.10;;;21.80;53.00;;;;;;6279340;28;20077;-68
2021/10/21 10:55:02;;;;;;;7.78;1.40;;;21.80;52.50;;;;;;6271819;28;20075;-68
2021/10/21 10:58:03;;;;;;;9.57;1.25;;;21.80;51.90;;;;;;6275456;28;20059;-67
2021/10/21 11:01:04;;;;;;;4.95;1.10;;;21.80;52.70;;;;;;6292135;28;20032;-68
2021/10/21 11:04:04;;;;;;;5.70;0.93;;;21.80;52.90;;;;;;6271235;28;20048;-70
2021/10/21 11:07:05;;;;;;;8.00;1.27;;;21.80;53.00;;;;;;6269296;28;20032;-70
2021/10/21 11:10:36;;;;;;;6.38;1.13;;;21.80;53.10;;;;;;6269399;28;20049;-70
2021/10/21 11:13:42;;;;;;;3.25;1.25;;;21.80;53.20;;;;;;6269135;28;20398;-69
2021/10/21 11:16:53;;;;;;;;;;;21.80;53.30;;;;;;6270495;28;20027;-70
2021/10/21 11:19:55;;;;;;;4.97;0.90;;;21.80;53.50;;;;;;6277489;28;19915;-69
2021/10/21 11:23:04;;;;;;;2.30;0.80;;;21.80;53.40;;;;;;6279559;28;20036;-68
2021/10/21 11:26:06;;;;;;;2.53;0.75;;;21.80;53.50;;;;;;6292807;28;20032;-69
2021/10/21 11:29:06;;;;;;;10.98;0.95;;;21.80;53.60;;;;;;6296896;28;20029;-69
2021/10/21 11:32:09;;;;;;;3.80;1.00;;;21.80;53.70;;;;;;6281858;28;20059;-68
2021/10/21 11:35:17;;;;;;;6.18;1.23;;;21.80;53.70;;;;;;6283883;28;20482;-69
2021/10/21 11:38:20;;;;;;;2.65;0.80;;;21.80;53.80;;;;;;6296674;28;20158;-69
2021/10/21 11:41:27;;;;;;;3.92;1.30;;;21.80;53.80;;;;;;6290787;28;20029;-69
2021/10/21 11:44:28;;;;;;;4.80;0.88;;;21.80;53.80;;;;;;6286922;28;20082;-68
2021/10/21 11:47:28;;;;;;;3.67;1.15;;;21.80;53.80;;;;;;6282470;28;20029;-69
2021/10/21 11:50:32;;;;;;;1.88;0.95;;;21.80;53.80;;;;;;6264667;28;20074;-69
2021/10/21 11:53:33;;;;;;;2.13;0.80;;;21.80;53.90;;;;;;6255950;28;20044;-69
2021/10/21 11:56:33;;;;;;;2.70;1.20;;;21.80;53.90;;;;;;6257438;28;20033;-69
2021/10/21 11:59:39;;;;;;;3.45;0.90;;;21.80;53.90;;;;;;6259960;28;20108;-69
2021/10/21 12:02:39;;;;;;;2.40;1.00;;;21.80;53.90;;;;;;6253215;28;20029;-69
2021/10/21 12:05:41;;;;;;;4.63;0.90;;;21.80;53.90;;;;;;6251387;28;20060;-69
2021/10/21 12:08:58;;;;;;;2.80;0.75;;;21.80;54.00;;;;;;6265204;28;20166;-68
2021/10/21 12:12:04;;;;;;;2.58;0.82;;;21.80;53.90;;;;;;6271512;28;20048;-69
2021/10/21 12:15:08;;;;;;;1.55;0.60;;;21.80;53.90;;;;;;6285306;28;20050;-69
2021/10/21 12:18:12;;;;;;;4.28;0.75;;;21.80;54.00;;;;;;6278171;28;20070;-68
2021/10/21 12:21:13;;;;;;;1.45;0.70;;;21.80;53.90;;;;;;6283179;28;20386;-68
2021/10/21 12:24:21;;;;;;;3.28;0.88;;;21.90;54.10;;;;;;6268375;28;20060;-69
2021/10/21 12:27:26;;;;;;;1.70;0.90;;;21.90;53.90;;;;;;6291952;28;20025;-69
2021/10/21 12:30:27;;;;;;;1.92;0.80;;;21.90;53.80;;;;;;6285629;28;20047;-69
2021/10/21 12:33:29;;;;;;;1.83;0.70;;;21.90;53.80;;;;;;6283067;28;20450;-69
2021/10/21 12:36:34;;;;;;;3.22;0.82;;;21.90;53.90;;;;;;6271680;28;20040;-69
2021/10/21 12:39:35;;;;;;;3.53;0.88;;;21.90;53.90;;;;;;6270930;28;20028;-69
2021/10/21 12:42:36;;;;;;;2.40;0.80;;;21.90;53.90;;;;;;6275732;28;20147;-69
2021/10/21 12:45:36;;;;;;;1.30;0.73;;;21.90;53.90;;;;;;6280024;28;20482;-68
2021/10/21 12:48:39;;;;;;;1.13;0.77;;;21.90;54.00;;;;;;6294434;28;20028;-68
2021/10/21 12:51:41;;;;;;;1.05;0.47;;;21.90;53.80;;;;;;6281838;28;20025;-68
2021/10/21 12:54:42;;;;;;;1.17;0.70;;;21.90;53.60;;;;;;6263960;28;20025;-69
2021/10/21 12:57:50;;;;;;;1.83;0.80;;;22.00;53.60;;;;;;6283479;28;20031;-68
2021/10/21 13:00:58;;;;;;;1.30;0.80;;;22.00;53.60;;;;;;6273055;28;20111;-68
2021/10/21 13:03:58;;;;;;;2.85;0.75;;;22.00;53.60;;;;;;6269385;28;20497;-68
2021/10/21 13:06:59;;;;;;;1.55;0.70;;;22.00;53.60;;;;;;6270000;28;20025;-68
2021/10/21 13:09:59;;;;;;;1.20;0.80;;;22.00;53.50;;;;;;6270588;28;20333;-68
2021/10/21 13:13:02;;;;;;;0.77;0.60;;;22.00;53.50;;;;;;6271217;28;20120;-68
2021/10/21 13:16:08;;;;;;;1.10;0.80;;;22.00;53.50;;;;;;6284909;28;20036;-68
2021/10/21 13:19:10;;;;;;;1.48;0.60;;;22.00;53.60;;;;;;6281652;28;20489;-69
2021/10/21 13:22:12;;;;;;;0.65;0.50;;;22.00;54.40;;;;;;6269529;28;20021;-69
2021/10/21 13:25:14;;;;;;;1.13;0.60;;;22.00;53.70;;;;;;6269963;28;20021;-69
2021/10/21 13:28:16;;;;;;;0.80;0.70;;;22.00;53.80;;;;;;6270195;28;20068;-69
2021/10/21 13:31:17;;;;;;;2.28;0.73;;;22.00;53.90;;;;;;6286337;28;20044;-69
2021/10/21 13:34:17;;;;;;;2.08;0.82;;;21.90;53.90;;;;;;6268735;28;20501;-69
2021/10/21 13:37:20;;;;;;;1.00;0.75;;;21.90;53.90;;;;;;6278836;28;20020;-69
2021/10/21 13:40:22;;;;;;;1.27;0.90;;;22.00;54.10;;;;;;6293352;28;20055;-69
2021/10/21 13:43:23;;;;;;;1.50;0.68;;;21.90;54.60;;;;;;6291340;28;20025;-69
2021/10/21 13:46:24;;;;;;;5.25;0.73;;;21.90;54.00;;;;;;6271056;28;20035;-69
2021/10/21 13:49:25;;;;;;;0.82;0.60;;;21.90;53.90;;;;;;6270260;28;20060;-68
2021/10/21 13:52:25;;;;;;;1.60;0.70;;;21.90;54.00;;;;;;6283194;28;20404;-68
2021/10/21 13:55:26;;;;;;;3.45;0.70;;;21.90;53.90;;;;;;6272830;28;20039;-69
2021/10/21 13:58:26;;;;;;;3.35;0.63;;;21.90;53.90;;;;;;6293828;28;20069;-69
2021/10/21 14:01:27;;;;;;;1.60;0.77;;;21.90;53.90;;;;;;6285119;28;20111;-69
2021/10/21 14:04:30;;;;;;;6.03;0.80;;;21.90;53.90;;;;;;6289809;28;20111;-69
2021/10/21 14:07:32;;;;;;;1.85;0.88;;;21.90;54.00;;;;;;6280722;28;20079;-68
2021/10/21 14:10:33;;;;;;;2.03;0.55;;;21.90;54.00;;;;;;6293732;28;20496;-70
2021/10/21 14:13:36;;;;;;;5.57;1.42;;;21.90;54.10;;;;;;6291722;28;20027;-69
2021/10/21 14:16:37;;;;;;;30.60;1.58;;;21.90;54.20;;;;;;6292972;28;20078;-68
2021/10/21 14:19:51;;;;;;;28.52;1.70;;;21.90;53.50;;;;;;6292176;28;20027;-68
2021/10/21 14:22:52;;;;;;;17.35;1.80;;;21.90;53.40;;;;;;6279625;28;20536;-68
2021/10/21 14:25:52;;;;;;;21.65;1.60;;;21.90;53.60;;;;;;6270872;28;20029;-69
2021/10/21 14:28:53;;;;;;;8.93;1.30;;;21.90;53.60;;;;;;6289084;28;20470;-69
2021/10/21 14:31:54;;;;;;;11.48;1.67;;;21.90;53.70;;;;;;6276700;28;20110;-71
2021/10/21 14:34:54;;;;;;;6.47;1.25;;;21.90;53.70;;;;;;6281894;28;20458;-70
2021/10/21 14:37:55;;;;;;;9.70;1.10;;;21.90;53.80;;;;;;6271535;28;20116;-69
2021/10/21 14:40:57;;;;;;;3.60;1.30;;;21.90;53.80;;;;;;6293529;28;20064;-71
2021/10/21 14:43:59;;;;;;;5.88;1.10;;;21.90;53.90;;;;;;6293551;28;20025;-69
2021/10/21 14:46:59;;;;;;;10.45;1.52;;;21.90;54.70;;;;;;6280502;28;20025;-68
2021/10/21 14:50:00;;;;;;;7.38;1.08;;;21.90;54.00;;;;;;6288793;28;20029;-67
2021/10/21 14:53:01;;;;;;;3.22;1.23;;;21.90;54.10;;;;;;6271957;28;20392;-69
2021/10/21 14:56:02;;;;;;;9.48;1.23;;;21.90;53.70;;;;;;6273394;28;20096;-69
2021/10/21 14:59:03;;;;;;;6.57;1.33;;;21.90;53.10;;;;;;6274740;28;20031;-68
2021/10/21 15:02:04;;;;;;;3.25;1.13;;;21.90;53.50;;;;;;6272983;28;20454;-67
2021/10/21 15:05:10;;;;;;;2.65;1.05;;;21.90;53.50;;;;;;6278524;28;20026;-68
2021/10/21 15:24:32;;;;;;;3.50;1.08;;;21.90;53.50;;;;;;6290398;28;20525;-68
2021/10/21 15:27:34;;;;;;;3.50;1.00;;;21.90;53.50;;;;;;6282201;28;20035;-67
2021/10/21 15:30:38;;;;;;;3.22;0.85;;;21.90;53.60;;;;;;6278705;28;20068;-67
2021/10/21 15:33:38;;;;;;;1.45;0.77;;;21.90;53.60;;;;;;6271437;28;20039;-67
2021/10/21 15:36:40;;;;;;;3.78;1.10;;;21.90;53.50;;;;;;6273353;28;20041;-68
2021/10/21 15:42:43;;;;;;;12.98;1.00;;;21.90;53.60;;;;;;6286774;28;20024;-68
2021/10/21 15:45:57;;;;;;;2.10;0.82;;;21.90;53.60;;;;;;6280862;28;20033;-68
2021/10/21 16:12:21;;;;;;;5.47;0.90;;;21.90;53.80;;;;;;6273482;28;20057;-70
2021/10/21 16:15:22;;;;;;;3.55;1.00;;;21.90;53.80;;;;;;6271902;28;20028;-70
2021/10/21 16:18:22;;;;;;;1.38;0.85;;;21.90;53.80;;;;;;6273154;28;20102;-70
2021/10/21 16:21:27;;;;;;;2.05;1.00;;;21.90;53.90;;;;;;6295619;28;20028;-70
2021/10/21 16:24:34;;;;;;;2.40;1.17;;;21.90;54.00;;;;;;6271484;28;20182;-70
2021/10/21 16:27:35;;;;;;;5.63;1.48;;;21.90;53.90;;;;;;6271664;28;20048;-70
2021/10/21 16:30:36;;;;;;;3.67;1.80;;;21.90;53.90;;;;;;6270489;28;20436;-69